Blackfish, Arkansas
Current Conditions -  °F | °C
As of 6:53 AM on Sunday 23 Nov 2014 (Local Time) from KAWM Reporting Station
Overcast Overcast  
Wind Chill: 59°   Ceiling: 1200
Heat Index: 59°   Visibility: 10mi
Dew Point: 57°   Wind: 14mph
Humidity: 93%   Direction: 150°SSE
Pressure: 29.73"   Gusts: NA
Location:  35.0663°N, 90.4665°W
Report Text: KAWM 231253Z AUTO 15012KT 10SM OVC012 15/14 A2973 RMK AO2 SLP065 T01500139
Loading
Personal Weather Stations






























Interactive Weather Map New forecast layout! Learn more

10-Day Weather Forecast

Advertisements
Track Severe Weather on mobile